Time;durP1;ratioP1;P1;durP2;ratioP2;P2;SDS_P1;SDS_P2;PMS_P1;PMS_P2;Temp;Humidity;BMP_temperature;BMP_pressure;BME280_temperature;BME280_humidity;BME280_pressure;Samples;Min_cycle;Max_cycle;Signal;HPM_P1;HPM_P2
2022/12/30 00:01:52;;;;;;;1.10;1.07;;;8.00;97.30;;;;;;4983475;28;20199;-87
2022/12/30 00:04:18;;;;;;;1.10;1.00;;;8.00;97.30;;;;;;4975328;28;20298;-84
2022/12/30 00:06:43;;;;;;;0.90;0.80;;;8.00;97.30;;;;;;4981215;28;20174;-85
2022/12/30 00:09:09;;;;;;;1.30;1.20;;;8.00;97.30;;;;;;4988179;28;20190;-85
2022/12/30 00:11:34;;;;;;;5.57;2.37;;;8.00;97.30;;;;;;4971105;28;20634;-85
2022/12/30 00:34:32;;;;;;;1.30;1.20;;;8.00;97.30;;;;;;4974511;28;20480;-87
2022/12/30 00:36:58;;;;;;;2.03;1.40;;;8.00;97.30;;;;;;4989390;28;20465;-86
2022/12/30 00:39:24;;;;;;;1.20;1.10;;;8.00;97.30;;;;;;4991354;28;20432;-87
2022/12/30 00:44:34;;;;;;;0.90;0.80;;;8.10;97.30;;;;;;4981786;28;20410;-86
2022/12/30 00:47:00;;;;;;;1.20;1.20;;;8.10;97.30;;;;;;4977284;28;20426;-85
2022/12/30 00:57:39;;;;;;;2.03;1.27;;;8.10;97.30;;;;;;4961328;28;20878;-85
2022/12/30 01:00:07;;;;;;;1.00;0.90;;;8.10;97.30;;;;;;4974000;28;20410;-85
2022/12/30 01:02:33;;;;;;;4.30;1.67;;;8.10;97.30;;;;;;4985449;28;20198;-88
2022/12/30 01:04:58;;;;;;;1.07;0.97;;;8.10;97.30;;;;;;4974274;28;20449;-86
2022/12/30 01:07:24;;;;;;;7.60;1.33;;;8.10;97.30;;;;;;4967439;28;20182;-85
2022/12/30 01:09:49;;;;;;;1.53;1.40;;;8.10;97.30;;;;;;4960637;28;20595;-86
2022/12/30 01:12:15;;;;;;;1.50;1.40;;;8.10;97.30;;;;;;4967322;28;20202;-86
2022/12/30 01:14:43;;;;;;;1.50;1.43;;;8.10;97.30;;;;;;4969830;28;20678;-85
2022/12/30 01:17:11;;;;;;;0.97;0.87;;;8.10;97.30;;;;;;4970651;28;20209;-87
2022/12/30 01:19:38;;;;;;;1.23;1.13;;;8.10;97.30;;;;;;4970526;28;20537;-87
2022/12/30 01:22:04;;;;;;;1.00;0.90;;;8.10;97.30;;;;;;4972040;28;20456;-86
2022/12/30 01:24:30;;;;;;;1.07;0.97;;;8.10;97.30;;;;;;4989474;28;20402;-90
2022/12/30 01:26:55;;;;;;;2.70;1.30;;;8.10;97.30;;;;;;4994320;28;20445;-89
2022/12/30 01:29:27;;;;;;;1.73;1.63;;;8.10;97.30;;;;;;5005315;28;20661;-86
2022/12/30 01:31:54;;;;;;;2.73;1.53;;;8.00;97.30;;;;;;4975176;28;20698;-86
2022/12/30 01:34:20;;;;;;;2.57;1.63;;;8.00;97.30;;;;;;4956349;28;20509;-86
2022/12/30 01:36:45;;;;;;;1.00;0.90;;;8.00;97.30;;;;;;4969004;28;20557;-85
2022/12/30 01:39:11;;;;;;;3.53;1.50;;;8.00;97.30;;;;;;4967818;28;20205;-86
2022/12/30 01:41:36;;;;;;;1.00;0.90;;;7.90;97.30;;;;;;4961795;28;20229;-86
2022/12/30 01:44:22;;;;;;;2.60;1.63;;;7.90;97.30;;;;;;4968833;28;20657;-86
2022/12/30 01:46:47;;;;;;;1.20;1.10;;;7.90;97.30;;;;;;4963899;28;20216;-85
2022/12/30 01:49:13;;;;;;;2.50;1.37;;;7.80;97.30;;;;;;4974230;28;20855;-87
2022/12/30 01:51:38;;;;;;;1.50;1.40;;;7.80;97.30;;;;;;4966856;28;20230;-86
2022/12/30 01:54:04;;;;;;;4.93;1.47;;;7.80;97.30;;;;;;4970385;28;20186;-86
2022/12/30 01:56:34;;;;;;;0.90;0.80;;;7.80;97.30;;;;;;4957805;28;20182;-86
2022/12/30 01:59:12;;;;;;;1.00;0.90;;;7.70;97.30;;;;;;4986478;28;20182;-85
2022/12/30 02:01:38;;;;;;;16.27;1.83;;;7.70;97.30;;;;;;4967520;28;20429;-85
2022/12/30 02:04:15;;;;;;;1.70;1.17;;;7.70;97.30;;;;;;4949628;28;20710;-85
2022/12/30 02:06:46;;;;;;;1.10;1.00;;;7.60;97.30;;;;;;4966269;28;20472;-86
2022/12/30 02:09:12;;;;;;;1.87;1.77;;;7.60;97.30;;;;;;4968597;28;20480;-86
2022/12/30 02:11:37;;;;;;;4.93;1.80;;;7.60;97.30;;;;;;4963087;28;20522;-86
2022/12/30 02:14:03;;;;;;;1.00;0.90;;;7.50;97.30;;;;;;4954576;28;20179;-86
2022/12/30 02:16:37;;;;;;;0.90;0.80;;;7.50;97.30;;;;;;4969568;28;20282;-86
2022/12/30 02:19:39;;;;;;;1.40;1.30;;;7.50;97.30;;;;;;4969817;28;20276;-86
2022/12/30 02:22:22;;;;;;;0.90;0.80;;;7.50;97.30;;;;;;4948708;28;20453;-86
2022/12/30 02:25:09;;;;;;;1.10;1.00;;;7.40;97.30;;;;;;4972518;28;20457;-86
2022/12/30 02:28:00;;;;;;;1.10;1.00;;;7.40;97.30;;;;;;4983933;28;20843;-85
2022/12/30 02:30:59;;;;;;;1.00;0.90;;;7.40;97.30;;;;;;4969685;28;20925;-86
2022/12/30 02:33:33;;;;;;;1.40;1.30;;;7.40;97.30;;;;;;4970120;28;20831;-86
2022/12/30 02:36:20;;;;;;;2.00;1.37;;;7.30;97.30;;;;;;4969257;28;20430;-89
2022/12/30 02:39:03;;;;;;;1.10;1.00;;;7.30;97.30;;;;;;4978200;28;20472;-87
2022/12/30 02:44:36;;;;;;;1.40;1.30;;;7.30;97.30;;;;;;4971269;28;20488;-85
2022/12/30 02:47:16;;;;;;;1.00;0.90;;;7.30;97.30;;;;;;4986338;28;20480;-85
2022/12/30 02:52:14;;;;;;;12.23;1.40;;;7.40;97.30;;;;;;4969520;28;20516;-85
2022/12/30 02:52:34;;;;;;;1.30;1.20;;;7.40;97.30;;;;;;4969711;28;20525;-85
2022/12/30 02:54:59;;;;;;;1.10;1.00;;;7.40;97.30;;;;;;4969528;28;20461;-85
2022/12/30 02:57:30;;;;;;;1.07;0.97;;;7.40;97.30;;;;;;4957707;28;20461;-85
2022/12/30 03:06:34;;;;;;;1.63;1.53;;;7.40;97.30;;;;;;4971803;28;20441;-85
2022/12/30 03:09:36;;;;;;;6.63;2.33;;;7.50;97.30;;;;;;4964814;28;20476;-86
2022/12/30 03:12:12;;;;;;;1.10;1.00;;;7.40;97.30;;;;;;4973140;28;20448;-84
2022/12/30 03:14:48;;;;;;;4.63;1.73;;;7.40;97.30;;;;;;4973803;28;20515;-85
2022/12/30 03:17:19;;;;;;;1.00;0.90;;;7.40;97.30;;;;;;4989163;28;20967;-86
2022/12/30 03:19:50;;;;;;;6.40;1.50;;;7.40;97.30;;;;;;4972225;28;20418;-85
2022/12/30 03:27:51;;;;;;;3.17;1.57;;;7.40;97.30;;;;;;4974286;28;20932;-86
2022/12/30 03:30:17;;;;;;;1.20;1.10;;;7.30;97.30;;;;;;4972667;28;20440;-86
2022/12/30 03:32:43;;;;;;;1.20;1.10;;;7.30;97.30;;;;;;4969026;28;20965;-86
2022/12/30 03:35:09;;;;;;;12.30;1.73;;;7.30;97.30;;;;;;4981802;28;20440;-85
2022/12/30 03:37:40;;;;;;;1.10;1.00;;;7.30;97.30;;;;;;4974141;28;20206;-83
2022/12/30 03:40:26;;;;;;;13.63;1.67;;;7.30;97.30;;;;;;4992281;28;20187;-82
2022/12/30 03:42:53;;;;;;;1.37;1.13;;;7.30;97.30;;;;;;4988713;28;20921;-80
2022/12/30 03:45:20;;;;;;;1.20;1.10;;;7.30;97.30;;;;;;4974358;28;20557;-85
2022/12/30 03:47:45;;;;;;;4.77;2.40;;;7.30;97.30;;;;;;4966117;28;20423;-80
2022/12/30 03:50:11;;;;;;;1.30;1.20;;;7.30;97.30;;;;;;4965502;28;20527;-82
2022/12/30 03:52:37;;;;;;;1.97;1.30;;;7.30;97.30;;;;;;4968835;28;20231;-81
2022/12/30 03:55:03;;;;;;;1.00;0.90;;;7.20;97.30;;;;;;4973957;28;20917;-81
2022/12/30 03:57:28;;;;;;;1.07;0.97;;;7.20;97.30;;;;;;4975079;28;20206;-81
2022/12/30 03:59:54;;;;;;;0.90;0.80;;;7.20;97.30;;;;;;4976053;28;20445;-81
2022/12/30 04:02:19;;;;;;;1.47;1.37;;;7.20;97.30;;;;;;4975784;28;20206;-82
2022/12/30 04:04:45;;;;;;;1.90;1.47;;;7.20;97.30;;;;;;4975870;28;20183;-80
2022/12/30 04:07:11;;;;;;;1.00;0.90;;;7.20;97.30;;;;;;4977289;28;20269;-83
2022/12/30 04:09:36;;;;;;;1.20;1.10;;;7.10;97.30;;;;;;4964438;28;20215;-82
2022/12/30 04:12:02;;;;;;;1.10;1.00;;;7.10;97.30;;;;;;4972671;28;20909;-81
2022/12/30 04:14:27;;;;;;;1.60;1.50;;;7.10;97.30;;;;;;4974508;28;20183;-82
2022/12/30 04:16:53;;;;;;;1.63;1.53;;;7.10;97.30;;;;;;4973460;28;20190;-83
2022/12/30 04:19:18;;;;;;;1.47;1.27;;;7.00;97.30;;;;;;4979582;28;20225;-87
2022/12/30 04:21:44;;;;;;;0.93;0.83;;;7.00;97.30;;;;;;4970426;28;20693;-86
2022/12/30 04:24:09;;;;;;;2.50;1.40;;;7.00;97.30;;;;;;4981283;28;20496;-86
2022/12/30 04:26:35;;;;;;;1.73;1.63;;;7.00;97.30;;;;;;4971861;28;20178;-86
2022/12/30 04:29:00;;;;;;;1.10;1.00;;;7.00;97.30;;;;;;4988551;28;20189;-86
2022/12/30 04:31:26;;;;;;;1.10;1.00;;;7.00;97.30;;;;;;4987653;28;20237;-88
2022/12/30 04:33:52;;;;;;;1.93;1.83;;;7.10;97.30;;;;;;4960819;28;20226;-85
2022/12/30 04:36:19;;;;;;;1.50;1.40;;;7.10;97.30;;;;;;4953429;28;20219;-87
2022/12/30 04:38:45;;;;;;;1.10;1.00;;;7.20;97.30;;;;;;4962218;28;20976;-86
2022/12/30 04:41:10;;;;;;;1.53;1.43;;;7.20;97.30;;;;;;4983016;28;20537;-86
2022/12/30 04:43:36;;;;;;;2.33;1.90;;;7.20;97.30;;;;;;4987751;28;20194;-86
2022/12/30 04:46:02;;;;;;;1.10;1.00;;;7.20;97.30;;;;;;4968098;28;20193;-85
2022/12/30 04:48:27;;;;;;;0.97;0.87;;;7.20;97.30;;;;;;4959250;28;20225;-86
2022/12/30 04:50:53;;;;;;;1.00;0.90;;;7.10;97.30;;;;;;4967759;28;20186;-86
2022/12/30 04:53:18;;;;;;;1.40;1.20;;;7.10;97.30;;;;;;4965109;28;20197;-85
2022/12/30 04:55:44;;;;;;;1.00;0.90;;;7.10;97.30;;;;;;4971581;28;20442;-85
2022/12/30 04:58:09;;;;;;;1.53;1.43;;;7.10;97.30;;;;;;4959661;28;20219;-86
2022/12/30 05:00:35;;;;;;;1.00;0.90;;;7.10;97.30;;;;;;4987168;28;20258;-86
2022/12/30 05:03:00;;;;;;;1.07;0.97;;;7.00;97.30;;;;;;4973884;28;20285;-85
2022/12/30 05:05:26;;;;;;;1.17;1.07;;;7.00;97.30;;;;;;4970163;28;20704;-87
2022/12/30 05:07:51;;;;;;;1.30;1.20;;;7.00;97.30;;;;;;4970626;28;20218;-85
2022/12/30 05:10:17;;;;;;;1.10;1.00;;;6.90;97.30;;;;;;4959954;28;20214;-87
2022/12/30 05:12:42;;;;;;;1.47;1.37;;;6.90;97.30;;;;;;4969702;28;20199;-85
2022/12/30 05:15:09;;;;;;;1.43;1.33;;;6.90;97.30;;;;;;4978968;28;20650;-86
2022/12/30 05:17:34;;;;;;;4.93;3.50;;;6.80;97.30;;;;;;4984965;28;20383;-85
2022/12/30 05:20:00;;;;;;;1.10;1.00;;;6.80;97.30;;;;;;4961414;28;20420;-90
2022/12/30 05:22:25;;;;;;;1.47;1.37;;;6.70;97.30;;;;;;4992155;28;20226;-89
2022/12/30 05:27:35;;;;;;;1.10;1.00;;;6.60;97.30;;;;;;4978600;28;20221;-86
2022/12/30 05:30:00;;;;;;;1.20;1.10;;;6.50;97.30;;;;;;4983286;28;20925;-86
2022/12/30 05:32:26;;;;;;;1.23;1.13;;;6.50;97.30;;;;;;4969683;28;20222;-86
2022/12/30 05:34:51;;;;;;;1.00;0.90;;;6.40;97.30;;;;;;4970612;28;20190;-89
2022/12/30 05:37:17;;;;;;;1.00;0.90;;;6.40;97.30;;;;;;4972095;28;20709;-85
2022/12/30 05:39:42;;;;;;;1.17;0.93;;;6.30;97.30;;;;;;4984775;28;20185;-87
2022/12/30 05:42:08;;;;;;;1.10;1.00;;;6.30;97.30;;;;;;4968741;28;20206;-88
2022/12/30 05:44:33;;;;;;;4.10;1.00;;;6.20;97.30;;;;;;4985931;28;20182;-85
2022/12/30 05:46:59;;;;;;;6.57;2.40;;;6.20;97.30;;;;;;4969760;28;20265;-87
2022/12/30 05:49:24;;;;;;;5.37;2.40;;;6.20;97.30;;;;;;4986614;28;20210;-85
2022/12/30 05:51:50;;;;;;;3.83;2.23;;;6.20;97.30;;;;;;4967236;28;20227;-85
2022/12/30 05:54:15;;;;;;;1.00;0.90;;;6.20;97.30;;;;;;4994831;23;20296;-88
2022/12/30 05:56:41;;;;;;;1.20;1.13;;;6.20;97.30;;;;;;4985465;28;20247;-88
2022/12/30 05:59:09;;;;;;;3.63;2.00;;;6.20;97.30;;;;;;4983962;28;21340;-84
2022/12/30 06:01:35;;;;;;;1.00;0.90;;;6.20;97.30;;;;;;4979985;28;20182;-86
2022/12/30 06:04:01;;;;;;;1.20;1.20;;;6.20;97.30;;;;;;4985397;28;20476;-86
2022/12/30 06:06:26;;;;;;;2.90;1.13;;;6.20;97.30;;;;;;4976967;28;20964;-85
2022/12/30 06:08:52;;;;;;;8.60;1.57;;;6.20;97.30;;;;;;4976684;28;20179;-87
2022/12/30 06:11:18;;;;;;;3.33;2.37;;;6.10;97.30;;;;;;4971043;28;20553;-89
2022/12/30 06:13:43;;;;;;;1.73;1.53;;;6.10;97.30;;;;;;4962389;28;20222;-88
2022/12/30 06:16:09;;;;;;;3.03;1.43;;;6.10;97.30;;;;;;4969763;28;21014;-88
2022/12/30 06:18:34;;;;;;;1.07;0.97;;;6.10;97.30;;;;;;4965698;28;20198;-88
2022/12/30 06:21:00;;;;;;;1.30;1.20;;;6.00;97.30;;;;;;4966923;28;20697;-88
2022/12/30 06:23:25;;;;;;;1.43;1.33;;;5.90;97.30;;;;;;4968356;28;20289;-87
2022/12/30 06:25:54;;;;;;;5.57;1.13;;;5.90;97.30;;;;;;4956591;28;20187;-90
2022/12/30 06:28:23;;;;;;;3.53;1.27;;;5.90;97.30;;;;;;4970294;28;20189;-88
2022/12/30 06:30:49;;;;;;;1.30;1.20;;;5.80;97.30;;;;;;4964135;28;20477;-88
2022/12/30 06:33:16;;;;;;;1.37;1.10;;;5.80;97.30;;;;;;4966128;28;20426;-87
2022/12/30 06:35:41;;;;;;;6.23;2.50;;;5.70;97.30;;;;;;4965662;28;20435;-89
2022/12/30 06:38:07;;;;;;;1.17;1.07;;;5.70;97.30;;;;;;4958130;28;20546;-89
2022/12/30 06:40:35;;;;;;;1.27;1.17;;;5.60;97.30;;;;;;4959761;28;20272;-89
2022/12/30 06:43:01;;;;;;;1.03;0.93;;;5.60;97.30;;;;;;4957845;28;20186;-88
2022/12/30 06:45:27;;;;;;;1.33;1.10;;;5.60;97.30;;;;;;4964777;28;20433;-87
2022/12/30 06:47:52;;;;;;;3.90;1.30;;;5.60;97.30;;;;;;4969764;28;20191;-90
2022/12/30 06:50:18;;;;;;;1.10;1.00;;;5.60;97.30;;;;;;4967465;28;20418;-87
2022/12/30 06:52:43;;;;;;;9.93;3.03;;;5.60;97.30;;;;;;4967814;28;20182;-87
2022/12/30 06:55:09;;;;;;;1.00;0.90;;;5.60;97.30;;;;;;4967691;28;20237;-88
2022/12/30 06:57:34;;;;;;;34.37;1.97;;;5.60;97.30;;;;;;4975101;28;20301;-88
2022/12/30 07:00:00;;;;;;;1.20;1.10;;;5.50;97.30;;;;;;4974341;28;20182;-88
2022/12/30 07:02:26;;;;;;;1.10;1.00;;;5.50;97.30;;;;;;4973860;28;20187;-88
2022/12/30 07:04:52;;;;;;;1.37;1.27;;;5.40;97.30;;;;;;4967589;28;20453;-88
2022/12/30 07:07:18;;;;;;;1.50;1.30;;;5.40;97.30;;;;;;4969217;28;20401;-87
2022/12/30 07:09:43;;;;;;;1.27;1.17;;;5.30;97.30;;;;;;4967293;28;20195;-87
2022/12/30 07:12:09;;;;;;;1.60;1.50;;;5.30;97.30;;;;;;4963628;28;20790;-88
2022/12/30 07:14:35;;;;;;;5.43;2.43;;;5.30;97.30;;;;;;4965112;28;20199;-88
2022/12/30 07:17:00;;;;;;;1.50;1.40;;;5.30;97.30;;;;;;4965687;28;20875;-86
2022/12/30 07:19:26;;;;;;;1.10;1.00;;;5.40;97.30;;;;;;4969729;28;20266;-87
2022/12/30 07:21:52;;;;;;;1.60;1.50;;;5.40;97.30;;;;;;4966061;28;20199;-87
2022/12/30 07:24:30;;;;;;;1.30;1.20;;;5.40;97.30;;;;;;4964392;28;20458;-88
2022/12/30 07:26:55;;;;;;;1.47;1.37;;;5.40;97.30;;;;;;4969846;28;20183;-87
2022/12/30 07:29:21;;;;;;;1.43;1.13;;;5.40;97.30;;;;;;4963270;28;20425;-87
2022/12/30 07:31:46;;;;;;;2.93;1.80;;;5.40;97.30;;;;;;4964578;28;20206;-88
2022/12/30 07:34:12;;;;;;;2.07;1.93;;;5.50;97.30;;;;;;4963681;28;20199;-87
2022/12/30 07:36:40;;;;;;;1.97;1.87;;;5.50;97.30;;;;;;4966665;28;20459;-88
2022/12/30 07:39:06;;;;;;;6.23;2.10;;;5.50;97.30;;;;;;4965616;28;20568;-88
2022/12/30 07:41:33;;;;;;;1.90;1.40;;;5.60;97.30;;;;;;4972044;28;20460;-88
2022/12/30 07:43:58;;;;;;;1.30;1.20;;;5.60;97.30;;;;;;4968182;28;20450;-87
2022/12/30 07:46:24;;;;;;;1.10;1.00;;;5.60;97.30;;;;;;4960356;28;20433;-87
2022/12/30 07:48:49;;;;;;;1.43;1.33;;;5.70;97.30;;;;;;4967847;28;20179;-87
2022/12/30 07:51:17;;;;;;;1.47;1.10;;;5.70;97.30;;;;;;4972242;28;20186;-86
2022/12/30 07:53:43;;;;;;;1.87;1.77;;;5.70;97.30;;;;;;4967381;28;20250;-86
2022/12/30 07:56:11;;;;;;;3.37;1.73;;;5.70;97.30;;;;;;4971029;28;20441;-87
2022/12/30 07:58:36;;;;;;;1.77;1.67;;;5.80;97.30;;;;;;4969978;28;20465;-87
2022/12/30 08:01:03;;;;;;;1.30;1.20;;;5.80;97.30;;;;;;4961336;28;20476;-87
2022/12/30 08:03:29;;;;;;;1.23;1.13;;;5.90;97.30;;;;;;4968302;28;20468;-89
2022/12/30 08:05:54;;;;;;;1.70;1.60;;;6.00;97.30;;;;;;4962352;28;20519;-87
2022/12/30 08:08:20;;;;;;;0.90;0.80;;;6.10;97.30;;;;;;4971197;28;20225;-87
2022/12/30 08:10:56;;;;;;;1.20;1.10;;;6.10;97.30;;;;;;4970522;28;20210;-88
2022/12/30 08:13:21;;;;;;;2.47;1.63;;;6.20;97.30;;;;;;4970018;28;20206;-87
2022/12/30 08:15:47;;;;;;;1.63;1.40;;;6.30;97.30;;;;;;4961608;28;20413;-87
2022/12/30 08:18:12;;;;;;;4.80;1.97;;;6.40;97.30;;;;;;4963048;28;20202;-87
2022/12/30 08:20:38;;;;;;;12.27;2.80;;;6.40;97.30;;;;;;4974152;28;20183;-87
2022/12/30 08:23:03;;;;;;;3.03;2.07;;;6.50;97.30;;;;;;4972785;28;20186;-88
2022/12/30 08:25:29;;;;;;;1.17;1.07;;;6.50;97.30;;;;;;4973053;28;20261;-86
2022/12/30 08:27:54;;;;;;;3.23;1.53;;;6.60;97.30;;;;;;4970964;28;20381;-86
2022/12/30 08:30:20;;;;;;;42.27;2.17;;;6.70;97.30;;;;;;4965115;28;20191;-89
2022/12/30 08:32:45;;;;;;;1.40;1.30;;;6.80;97.30;;;;;;4968826;28;20206;-88
2022/12/30 08:35:11;;;;;;;1.50;1.40;;;6.80;97.30;;;;;;4966406;28;20203;-88
2022/12/30 08:37:36;;;;;;;2.10;1.73;;;6.90;97.30;;;;;;4968027;28;20652;-86
2022/12/30 08:40:03;;;;;;;1.07;1.03;;;7.00;97.30;;;;;;4961247;28;20182;-88
2022/12/30 08:42:28;;;;;;;0.90;0.80;;;7.10;97.30;;;;;;4968629;28;20266;-86
2022/12/30 08:44:54;;;;;;;1.00;0.90;;;7.20;97.30;;;;;;4963758;28;20541;-87
2022/12/30 08:47:19;;;;;;;1.00;0.90;;;7.20;97.30;;;;;;4963403;28;20190;-87
2022/12/30 08:49:45;;;;;;;0.90;0.80;;;7.30;97.30;;;;;;4970704;28;20292;-88
2022/12/30 08:52:11;;;;;;;9.20;2.00;;;7.40;97.30;;;;;;4971126;28;20669;-89
2022/12/30 08:54:36;;;;;;;14.53;1.40;;;7.50;97.30;;;;;;4970038;28;20800;-88
2022/12/30 08:57:02;;;;;;;1.00;0.90;;;7.50;97.30;;;;;;4970022;28;20190;-86
2022/12/30 08:59:28;;;;;;;4.20;1.23;;;7.60;97.30;;;;;;4968086;28;20198;-86
2022/12/30 09:01:53;;;;;;;1.00;0.90;;;7.60;97.30;;;;;;4964506;28;20198;-88
2022/12/30 09:04:19;;;;;;;1.00;0.90;;;7.60;97.30;;;;;;4969640;28;20448;-88
2022/12/30 09:06:44;;;;;;;1.30;1.20;;;7.70;97.30;;;;;;4966544;28;20565;-88
2022/12/30 09:09:12;;;;;;;1.33;1.10;;;7.70;97.30;;;;;;4969928;28;20190;-87
2022/12/30 09:11:39;;;;;;;2.50;1.33;;;7.80;97.30;;;;;;4970828;28;20189;-87
2022/12/30 09:14:08;;;;;;;1.30;1.20;;;7.90;97.30;;;;;;4970209;28;20456;-87
2022/12/30 09:16:34;;;;;;;2.53;1.77;;;7.90;97.30;;;;;;4970974;28;20418;-86
2022/12/30 09:19:00;;;;;;;1.77;1.67;;;8.00;97.30;;;;;;4967878;28;20470;-86
2022/12/30 09:21:26;;;;;;;4.00;1.57;;;8.00;97.30;;;;;;4971062;28;20455;-86
2022/12/30 09:23:51;;;;;;;1.10;1.00;;;8.00;97.30;;;;;;4970863;28;20207;-88
2022/12/30 09:26:23;;;;;;;0.90;0.80;;;8.10;97.30;;;;;;4970966;28;20425;-87
2022/12/30 09:28:50;;;;;;;0.90;0.80;;;8.10;97.30;;;;;;4970770;28;20197;-86
2022/12/30 09:31:16;;;;;;;1.10;1.00;;;8.10;97.30;;;;;;4970125;28;20454;-87
2022/12/30 09:33:41;;;;;;;4.60;2.60;;;8.20;97.30;;;;;;4970503;28;21039;-88
2022/12/30 09:36:08;;;;;;;3.40;1.20;;;8.20;97.30;;;;;;4972067;28;20436;-87
2022/12/30 09:38:33;;;;;;;1.87;1.80;;;8.30;97.30;;;;;;4971114;28;20206;-88
2022/12/30 09:41:07;;;;;;;3.43;2.50;;;8.30;97.30;;;;;;4970682;28;20428;-87
2022/12/30 09:43:49;;;;;;;1.10;1.00;;;8.40;97.30;;;;;;4971037;28;20235;-88
2022/12/30 09:46:40;;;;;;;1.10;0.90;;;8.40;97.30;;;;;;4970617;28;20425;-85
2022/12/30 09:49:37;;;;;;;1.37;1.13;;;8.50;97.30;;;;;;4970178;28;20573;-88
2022/12/30 09:52:21;;;;;;;4.70;1.93;;;8.50;97.30;;;;;;4971073;28;20425;-89
2022/12/30 09:54:56;;;;;;;2.00;1.73;;;8.50;97.30;;;;;;4960956;28;20477;-87
2022/12/30 09:57:32;;;;;;;1.00;0.90;;;8.50;97.30;;;;;;4966631;28;20471;-85
2022/12/30 10:00:16;;;;;;;1.43;1.33;;;8.60;97.30;;;;;;4965551;28;20426;-88
2022/12/30 10:03:05;;;;;;;3.90;2.00;;;8.60;97.30;;;;;;4966128;28;20509;-87
2022/12/30 10:05:53;;;;;;;1.10;1.00;;;8.60;97.30;;;;;;4964641;28;20484;-87
2022/12/30 10:08:50;;;;;;;22.67;1.47;;;8.70;97.30;;;;;;4963562;28;20434;-88
2022/12/30 10:11:55;;;;;;;1.20;1.10;;;8.80;97.30;;;;;;4967033;28;20426;-88
2022/12/30 10:14:51;;;;;;;0.90;0.80;;;8.80;97.30;;;;;;4947662;28;20443;-88
2022/12/30 10:17:44;;;;;;;8.90;1.50;;;8.90;97.30;;;;;;4963793;28;20470;-89
2022/12/30 10:20:47;;;;;;;2.50;1.57;;;9.00;97.30;;;;;;4965534;28;20433;-88
2022/12/30 10:23:42;;;;;;;12.13;1.47;;;9.10;97.20;;;;;;4967894;28;21077;-88
2022/12/30 10:26:46;;;;;;;1.30;1.20;;;9.20;97.20;;;;;;4966746;28;20449;-86
2022/12/30 10:29:20;;;;;;;1.90;1.87;;;9.20;96.70;;;;;;4965996;28;20661;-87
2022/12/30 10:31:48;;;;;;;5.00;1.20;;;9.30;96.70;;;;;;4966750;28;20422;-87
2022/12/30 10:34:15;;;;;;;5.27;3.67;;;9.30;97.00;;;;;;4968086;28;20470;-87
2022/12/30 10:36:58;;;;;;;6.10;2.37;;;9.40;96.70;;;;;;4970916;28;20441;-87
2022/12/30 10:39:28;;;;;;;1.20;1.10;;;9.50;96.80;;;;;;4971664;28;20454;-87
2022/12/30 10:42:25;;;;;;;1.53;1.43;;;9.60;96.50;;;;;;4967071;28;20426;-87
2022/12/30 10:45:26;;;;;;;1.30;1.20;;;9.70;96.30;;;;;;4964436;28;20454;-88
2022/12/30 10:48:25;;;;;;;6.87;1.30;;;9.70;96.10;;;;;;4956797;28;20436;-88
2022/12/30 10:50:52;;;;;;;1.10;1.00;;;9.70;96.20;;;;;;4965609;28;20430;-86
2022/12/30 10:53:21;;;;;;;1.33;1.23;;;9.80;95.90;;;;;;4965299;28;20427;-88
2022/12/30 10:55:52;;;;;;;0.90;0.80;;;9.80;95.40;;;;;;4970120;28;20430;-88
2022/12/30 10:58:24;;;;;;;2.50;1.20;;;9.90;95.40;;;;;;4966667;28;20459;-86
2022/12/30 11:00:50;;;;;;;1.80;1.10;;;9.90;95.30;;;;;;4969160;28;21239;-86
2022/12/30 11:03:30;;;;;;;1.10;1.00;;;9.90;94.80;;;;;;4970833;28;20444;-85
2022/12/30 11:06:15;;;;;;;2.00;1.83;;;9.90;94.70;;;;;;4961606;28;20206;-84
2022/12/30 11:08:41;;;;;;;1.50;1.43;;;9.90;94.60;;;;;;4964593;28;20449;-88
2022/12/30 11:11:08;;;;;;;0.97;0.90;;;9.90;94.50;;;;;;4968390;28;20981;-86
2022/12/30 11:16:28;;;;;;;2.30;1.63;;;10.00;94.30;;;;;;4965145;28;20473;-86
2022/12/30 11:18:56;;;;;;;1.10;1.00;;;10.10;94.40;;;;;;4963512;28;20468;-84
2022/12/30 11:21:31;;;;;;;1.00;0.90;;;10.10;94.10;;;;;;4960871;28;20799;-86
2022/12/30 11:24:02;;;;;;;1.10;1.00;;;10.10;94.00;;;;;;4967100;28;21030;-85
2022/12/30 11:26:30;;;;;;;2.30;2.13;;;10.00;94.00;;;;;;4967036;28;20422;-85
2022/12/30 11:29:09;;;;;;;1.00;0.90;;;10.00;94.10;;;;;;4974534;28;20926;-85
2022/12/30 11:31:41;;;;;;;1.37;1.33;;;10.00;94.20;;;;;;4968860;28;20438;-89
2022/12/30 11:34:24;;;;;;;0.90;0.80;;;10.00;94.30;;;;;;4967888;28;20446;-85
2022/12/30 11:36:49;;;;;;;1.87;1.10;;;10.10;94.20;;;;;;4972337;28;20425;-89
2022/12/30 11:39:15;;;;;;;1.00;0.90;;;10.20;94.50;;;;;;4969244;28;20476;-87
2022/12/30 11:41:56;;;;;;;1.23;1.13;;;10.20;94.40;;;;;;4969095;28;20480;-88
2022/12/30 11:44:28;;;;;;;1.00;0.90;;;10.30;94.60;;;;;;4968254;28;20604;-86
2022/12/30 11:47:19;;;;;;;1.33;1.00;;;10.40;94.40;;;;;;4970804;28;20441;-86
2022/12/30 11:49:50;;;;;;;1.30;1.20;;;10.50;94.00;;;;;;4965991;28;20581;-86
2022/12/30 11:52:20;;;;;;;1.93;1.43;;;10.60;94.00;;;;;;4971390;28;21007;-85
2022/12/30 11:57:27;;;;;;;2.23;2.03;;;10.90;93.70;;;;;;4989678;28;20469;-86
2022/12/30 11:59:56;;;;;;;1.00;0.90;;;11.00;93.70;;;;;;4991805;28;20432;-85
2022/12/30 12:02:38;;;;;;;1.10;1.00;;;11.00;93.00;;;;;;4992053;28;20810;-84
2022/12/30 12:05:21;;;;;;;1.00;0.90;;;11.20;93.30;;;;;;4979839;28;20449;-85
2022/12/30 12:07:50;;;;;;;1.30;1.20;;;11.30;93.00;;;;;;4976981;28;20940;-88
2022/12/30 12:10:22;;;;;;;1.20;1.13;;;11.30;92.80;;;;;;4986559;28;20508;-87
2022/12/30 12:12:54;;;;;;;1.97;1.63;;;11.20;92.60;;;;;;4983080;28;20943;-87
2022/12/30 12:15:35;;;;;;;1.40;1.30;;;11.10;92.90;;;;;;4984333;28;20468;-86
2022/12/30 12:18:22;;;;;;;1.30;1.20;;;11.10;93.30;;;;;;4983148;28;20548;-86
2022/12/30 12:21:09;;;;;;;1.13;1.03;;;11.20;93.20;;;;;;5004846;28;20440;-87
2022/12/30 12:24:01;;;;;;;1.77;1.17;;;11.00;93.00;;;;;;4977865;28;20444;-85
2022/12/30 12:26:36;;;;;;;1.00;0.90;;;10.90;93.30;;;;;;4980012;28;20422;-86
2022/12/30 12:29:01;;;;;;;33.87;1.90;;;10.90;93.50;;;;;;4985338;28;20445;-85
2022/12/30 12:32:06;;;;;;;1.23;1.13;;;10.80;93.90;;;;;;4983947;28;20467;-86
2022/12/30 12:34:53;;;;;;;1.00;0.90;;;10.80;94.00;;;;;;4976832;28;20296;-85
2022/12/30 12:37:49;;;;;;;1.00;0.90;;;10.70;94.50;;;;;;4980887;28;20433;-85
2022/12/30 12:40:46;;;;;;;1.00;0.90;;;10.80;94.50;;;;;;4981377;28;20502;-83
2022/12/30 12:43:44;;;;;;;1.10;1.00;;;10.90;94.10;;;;;;4986634;28;20420;-87
2022/12/30 12:46:47;;;;;;;1.00;0.90;;;10.90;93.00;;;;;;4978752;28;20786;-86
2022/12/30 12:49:15;;;;;;;1.03;0.93;;;10.90;92.30;;;;;;4979801;28;20801;-86
2022/12/30 12:51:49;;;;;;;3.83;1.20;;;10.70;92.40;;;;;;4987961;28;20433;-85
2022/12/30 12:54:41;;;;;;;1.00;0.90;;;10.70;92.80;;;;;;4990240;28;20467;-85
2022/12/30 12:57:22;;;;;;;0.90;0.80;;;10.80;92.80;;;;;;4990144;28;20470;-85
2022/12/30 13:00:11;;;;;;;1.17;1.10;;;11.00;92.90;;;;;;4982842;28;20488;-85
2022/12/30 13:03:08;;;;;;;3.43;1.20;;;11.00;92.50;;;;;;5004552;28;20420;-85
2022/12/30 13:06:08;;;;;;;1.57;1.17;;;10.90;92.80;;;;;;4980019;28;20521;-86
2022/12/30 13:08:59;;;;;;;1.73;1.63;;;11.00;92.90;;;;;;4991907;28;20509;-86
2022/12/30 13:11:40;;;;;;;4.20;1.50;;;11.10;92.60;;;;;;4982794;28;20429;-87
2022/12/30 13:14:23;;;;;;;13.10;1.13;;;10.90;92.60;;;;;;4996194;28;20437;-90
2022/12/30 13:16:54;;;;;;;1.77;1.30;;;10.70;93.00;;;;;;4976780;28;20461;-87
2022/12/30 13:19:26;;;;;;;1.40;1.30;;;10.40;93.50;;;;;;4977835;28;20460;-85
2022/12/30 13:21:57;;;;;;;1.10;1.00;;;10.20;93.90;;;;;;4990020;28;20491;-87
2022/12/30 13:24:34;;;;;;;1.10;1.00;;;10.10;94.10;;;;;;4988860;28;20978;-87
2022/12/30 13:27:01;;;;;;;2.77;2.57;;;10.00;94.30;;;;;;4989027;28;20405;-85
2022/12/30 13:29:32;;;;;;;1.00;0.90;;;9.90;94.70;;;;;;4989792;28;20520;-86
2022/12/30 13:32:25;;;;;;;1.97;1.87;;;9.80;95.10;;;;;;4976374;28;20425;-85
2022/12/30 13:35:13;;;;;;;3.67;2.50;;;9.80;95.40;;;;;;4974649;28;20438;-86
2022/12/30 13:37:47;;;;;;;3.03;2.20;;;9.70;95.70;;;;;;4982781;28;20464;-86
2022/12/30 13:40:17;;;;;;;1.47;1.37;;;9.60;95.90;;;;;;4990548;28;20421;-85
2022/12/30 13:42:58;;;;;;;2.70;1.27;;;9.50;96.20;;;;;;4986797;28;20947;-85
2022/12/30 13:45:29;;;;;;;1.20;1.10;;;9.40;96.40;;;;;;4970923;28;20470;-87
2022/12/30 13:48:04;;;;;;;1.30;1.20;;;9.40;96.80;;;;;;4972861;28;20940;-85
2022/12/30 13:50:32;;;;;;;3.40;1.70;;;9.30;97.10;;;;;;4970387;28;20893;-86
2022/12/30 13:53:00;;;;;;;2.37;1.23;;;9.20;97.20;;;;;;4987429;28;21128;-85
2022/12/30 13:55:35;;;;;;;1.37;1.27;;;9.20;97.30;;;;;;4988806;28;20497;-85
2022/12/30 13:58:28;;;;;;;5.97;2.10;;;9.20;97.30;;;;;;4977410;28;20480;-85
2022/12/30 14:01:20;;;;;;;1.50;1.40;;;9.10;97.30;;;;;;4987185;28;20422;-85
2022/12/30 14:03:47;;;;;;;2.70;2.50;;;9.10;97.30;;;;;;4970267;28;20437;-85
2022/12/30 14:06:24;;;;;;;1.50;1.40;;;9.10;97.30;;;;;;4985851;28;20421;-86
2022/12/30 14:09:11;;;;;;;1.10;1.00;;;9.10;97.30;;;;;;4984632;28;20416;-86
2022/12/30 14:11:37;;;;;;;3.83;3.03;;;9.10;97.30;;;;;;4981597;28;20432;-87
2022/12/30 14:14:17;;;;;;;1.30;1.20;;;9.00;97.30;;;;;;4985181;28;20741;-85